METAR Data
IDs: Format: Raw Decoded Include TAF

Data at: 2245 UTC 10 May 2021

KGJT 102153Z 30014G25KT 10SM FEW100 16/M01 A2994 RMK AO2 PK WND 31029/2116 SLP097 T01611006
KGJT 102053Z 31006G15KT 10SM SCT110 16/01 A2994 RMK AO2 SLP098 T01610011 56017
KGJT 101953Z 27007KT 10SM FEW110 16/02 A2996 RMK AO2 SLP104 T01560022
KGJT 101853Z 30004KT 10SM CLR 13/02 A2997 RMK AO2 SLP116 T01280022
KGJT 101753Z 07004KT 10SM SCT039 BKN048 BKN055 12/02 A2999 RMK AO2 SLP125 60000 T01170017 10117 20072 57008
KGJT 101653Z 11006KT 10SM FEW055 11/03 A3000 RMK AO2 SLP129 T01060033
KGJT 101553Z 00000KT 10SM FEW035 BKN100 08/03 A3001 RMK AO2 RAE34 SLP134 P0000 T00830033
KGJT 101453Z 35007KT 10SM -RA BKN050 OVC065 08/04 A3002 RMK AO2 SLP135 P0000 60000 T00780039 51010
KGJT 101353Z 34009KT 10SM -RA OVC050 08/03 A3002 RMK AO2 RAB50 SLP127 P0000 T00830028
KGJT 101253Z 36009KT 10SM BKN065 BKN080 OVC100 08/03 A3001 RMK AO2 SLP124 T00780028
KGJT 101153Z AUTO 36011KT 10SM OVC075 08/03 A2999 RMK AO2 PK WND 33026/1057 RAE25 SLP116 P0001 60001 70001 T00780028 10117 20078 51019
KGJT 101053Z AUTO 33016G27KT 10SM -RA BKN042 OVC070 09/02 A2999 RMK AO2 PK WND 34027/1042 WSHFT 1002 RAB42 SLP111 P0000 T00890017
KGJT 101022Z AUTO 33016KT 10SM BKN070 OVC085 11/M01 A2997 RMK AO2 PK WND 33026/1005 WSHFT 1002 T01061006
KGJT 100953Z AUTO 00000KT 10SM SCT075 OVC100 11/M02 A2994 RMK AO2 SLP098 T01061022
KGJT 100853Z AUTO 02004KT 10SM OVC100 11/M05 A2993 RMK AO2 SLP090 T01061050 50001
KGJT 100753Z AUTO 34005KT 10SM BKN120 11/M06 A2993 RMK AO2 SLP093 T01111061
KGJT 100653Z AUTO 00000KT 10SM SCT110 10/M06 A2993 RMK AO2 SLP101 T01001056 401940017
KGJT 100553Z AUTO 00000KT 10SM FEW120 11/M06 A2992 RMK AO2 SLP097 T01061061 10183 20106 51006
KGJT 100453Z AUTO 09003KT 10SM CLR 11/M07 A2992 RMK AO2 SLP098 T01111067
KGJT 100353Z AUTO 01005KT 10SM BKN110 13/M08 A2992 RMK AO2 SLP095 T01281078
KGJT 100253Z 33004KT 10SM CLR 14/M08 A2990 RMK AO2 SLP087 T01441083 53000
KGJT 100153Z 27006KT 10SM CLR 17/M09 A2990 RMK AO2 SLP085 T01671089
KGJT 100053Z 25013KT 10SM CLR 18/M09 A2990 RMK AO2 SLP090 T01781089
KGJT 092353Z 29012G22KT 10SM FEW100 18/M09 A2990 RMK AO2 SLP092 T01831089 10194 20139 56014
KGJT 092253Z 24013G23KT 10SM BKN110 19/M09 A2991 RMK AO2 SLP091 T01941089
KGJT 092153Z 23006KT 10SM OVC110 17/M11 A2992 RMK AO2 SLP097 T01721111
KGJT 092053Z AUTO VRB04KT 10SM FEW120 18/M11 A2995 RMK AO2 SLP101 T01781111 56023
KGJT 091953Z 28009G16KT 10SM CLR 18/M12 A2997 RMK AO2 SLP106 T01781122
KGJT 091853Z VRB04KT 10SM CLR 14/M12 A3000 RMK AO2 SLP119 T01441117
KGJT 091753Z VRB05KT 10SM CLR 14/M12 A3002 RMK AO2 SLP128 T01391117 10144 20017 56006
KGJT 091653Z 17003KT 10SM CLR 12/M12 A3003 RMK AO2 SLP133 T01221122
KGJT 091553Z 00000KT 10SM CLR 11/M11 A3004 RMK AO2 SLP137 T01111111
KGJT 091453Z 00000KT 10SM CLR 11/M11 A3004 RMK AO2 SLP135 T01061111 50005
KGJT 091353Z 32003KT 10SM CLR 09/M11 A3005 RMK AO2 SLP132 T00891111
KGJT 091253Z 00000KT 10SM CLR 06/M09 A3004 RMK AO2 SLP133 T00561094
KGJT 091153Z 08003KT 10SM CLR 03/M10 A3003 RMK AO2 SLP129 T00331100 10128 20022 53009
KGJT 091053Z AUTO 00000KT 10SM CLR 05/M10 A3001 RMK AO2 SLP121 T00501100